Ballantine, Montana
Current Conditions -  °F | °C
As of 4:00 PM on Wednesday 26 Nov 2014 (Local Time) from KBIL Reporting Station
Light Snow Light Snow  
Wind Chill: 23°   Ceiling: 700
Heat Index: 29°   Visibility: 1.5mi
Dew Point: 28°   Wind: 6mph
Humidity: 96%   Direction: 130°SE
Pressure: 30.18"   Gusts: NA
Location:  45.95°N, 108.15°W
Report Text: KBIL 262300Z 13005KT 1 1/2SM -SN BR FEW004 BKN007 OVC019 M02/M02 A3018 RMK AO2 SFC VIS 2 1/2 P0000 T10171022
Loading
Personal Weather Stations






























Interactive Weather Map New forecast layout! Learn more

10-Day Weather Forecast

Advertisements
Track Severe Weather on mobile